createdAt,value
2022-12-08T00:00:06.004Z,100464.44
2022-12-08T00:03:21.397Z,100463.81
2022-12-08T00:06:43.326Z,100466.03
2022-12-08T00:09:51.925Z,100472.75
2022-12-08T00:13:00.339Z,100473.38
2022-12-08T00:16:09.061Z,100462.69
2022-12-08T00:19:17.321Z,100465.34
2022-12-08T00:22:32.375Z,100462.75
2022-12-08T00:25:40.898Z,100469.56
2022-12-08T00:28:50.349Z,100467.34
2022-12-08T00:31:59.014Z,100469.78
2022-12-08T00:35:07.351Z,100479.34
2022-12-08T00:38:16.403Z,100461.41
2022-12-08T00:41:27.294Z,100473.78
2022-12-08T00:44:35.867Z,100477.41
2022-12-08T00:47:50.333Z,100478.25
2022-12-08T00:50:59.142Z,100475.19
2022-12-08T00:54:15.371Z,100477.53
2022-12-08T00:57:24.169Z,100484.13
2022-12-08T01:00:32.383Z,100473.28
2022-12-08T01:03:47.995Z,100475.81
2022-12-08T01:06:56.313Z,100474.84
2022-12-08T01:10:12.416Z,100472.94
2022-12-08T01:13:20.325Z,100477.09
2022-12-08T01:16:39.405Z,100474.00
2022-12-08T01:19:47.405Z,100473.28
2022-12-08T01:22:55.922Z,100475.09
2022-12-08T01:26:10.369Z,100466.78
2022-12-08T01:29:19.298Z,100472.44
2022-12-08T01:32:27.475Z,100477.00
2022-12-08T01:35:36.022Z,100475.81
2022-12-08T01:38:44.359Z,100478.47
2022-12-08T01:41:59.379Z,100470.00
2022-12-08T01:45:24.994Z,100483.34
2022-12-08T01:48:34.362Z,100470.38
2022-12-08T01:51:59.369Z,100466.44
2022-12-08T01:55:07.314Z,100459.31
2022-12-08T01:58:29.367Z,100462.53
2022-12-08T02:01:31.343Z,100455.19
2022-12-08T02:04:53.382Z,100460.44
2022-12-08T02:07:57.225Z,100449.41
2022-12-08T02:11:16.363Z,100440.06
2022-12-08T02:14:32.455Z,100440.84
2022-12-08T02:18:01.367Z,100435.41
2022-12-08T02:21:26.535Z,100441.91
2022-12-08T02:24:38.894Z,100434.47
2022-12-08T02:28:14.406Z,100448.59
2022-12-08T02:31:52.370Z,100447.13
2022-12-08T02:35:21.398Z,100446.84
2022-12-08T02:38:49.703Z,100441.38
2022-12-08T02:42:08.394Z,100434.88
2022-12-08T02:45:29.706Z,100440.97
2022-12-08T02:48:40.394Z,100427.16
2022-12-08T02:51:49.057Z,100426.97
2022-12-08T02:55:06.445Z,100427.37
2022-12-08T02:58:48.345Z,100413.16
2022-12-08T03:02:14.125Z,100415.50
2022-12-08T03:06:02.463Z,100406.78
2022-12-08T03:09:23.433Z,100419.84
2022-12-08T03:12:40.026Z,100415.91
2022-12-08T03:15:52.827Z,100414.66
2022-12-08T03:19:10.061Z,100414.66
2022-12-08T03:22:30.403Z,100418.06
2022-12-08T03:25:43.417Z,100423.03
2022-12-08T03:28:52.386Z,100419.09
2022-12-08T03:32:22.432Z,100412.09
2022-12-08T03:35:41.423Z,100410.19
2022-12-08T03:38:45.683Z,100408.16
2022-12-08T03:42:00.393Z,100429.50
2022-12-08T03:45:02.246Z,100423.13
2022-12-08T03:48:17.403Z,100413.78
2022-12-08T03:51:26.418Z,100422.72
2022-12-08T03:54:35.036Z,100412.94
2022-12-08T03:57:43.442Z,100414.75
2022-12-08T04:00:52.144Z,100406.91
2022-12-08T04:04:07.469Z,100404.56
2022-12-08T04:07:22.519Z,100408.06
2022-12-08T04:10:24.426Z,100404.34
2022-12-08T04:13:41.421Z,100411.47
2022-12-08T04:16:43.285Z,100402.22
2022-12-08T04:19:58.449Z,100396.91
2022-12-08T04:23:06.439Z,100383.22
2022-12-08T04:26:16.692Z,100377.16
2022-12-08T04:29:25.443Z,100379.72
2022-12-08T04:32:34.071Z,100383.53
2022-12-08T04:35:42.427Z,100384.88
2022-12-08T04:38:51.107Z,100384.03
2022-12-08T04:42:00.470Z,100395.63
2022-12-08T04:45:09.420Z,100388.94
2022-12-08T04:48:24.474Z,100386.13
2022-12-08T04:51:33.100Z,100384.06
2022-12-08T04:54:41.434Z,100377.47
2022-12-08T04:57:56.497Z,100378.69
2022-12-08T05:01:04.485Z,100373.63
2022-12-08T05:04:26.433Z,100378.53
2022-12-08T05:07:41.580Z,100383.72
2022-12-08T05:10:50.153Z,100390.59
2022-12-08T05:13:58.438Z,100381.84
2022-12-08T05:17:09.727Z,100387.94
2022-12-08T05:20:24.537Z,100391.34
2022-12-08T05:23:27.055Z,100399.41
2022-12-08T05:26:41.519Z,100395.47
2022-12-08T05:29:51.281Z,100387.69
2022-12-08T05:33:06.465Z,100392.03
2022-12-08T05:36:10.362Z,100381.97
2022-12-08T05:39:25.516Z,100377.50
2022-12-08T05:42:27.553Z,100378.75
2022-12-08T05:45:42.568Z,100365.06
2022-12-08T05:48:44.502Z,100364.62
2022-12-08T05:51:59.527Z,100351.00
2022-12-08T05:55:09.494Z,100363.34
2022-12-08T05:58:20.967Z,100375.13
2022-12-08T06:01:32.527Z,100381.84
2022-12-08T06:04:54.518Z,100380.53
2022-12-08T06:07:56.397Z,100372.53
2022-12-08T06:11:11.477Z,100383.81
2022-12-08T06:14:20.490Z,100387.34
2022-12-08T06:17:35.515Z,100380.50
2022-12-08T06:20:43.555Z,100391.75
2022-12-08T06:23:56.923Z,100393.31
2022-12-08T06:27:12.476Z,100391.19
2022-12-08T06:30:14.827Z,100394.47
2022-12-08T06:33:29.530Z,100389.75
2022-12-08T06:36:31.762Z,100391.47
2022-12-08T06:39:46.503Z,100400.63
2022-12-08T06:42:48.413Z,100397.47
2022-12-08T06:46:03.633Z,100405.78
2022-12-08T06:49:12.543Z,100396.22
2022-12-08T06:52:21.150Z,100396.72
2022-12-08T06:55:57.782Z,100396.63
2022-12-08T06:59:05.751Z,100401.72
2022-12-08T07:02:21.675Z,100395.81
2022-12-08T07:05:29.861Z,100407.81
2022-12-08T07:08:44.551Z,100404.13
2022-12-08T07:11:59.545Z,100403.13
2022-12-08T07:15:01.484Z,100401.81
2022-12-08T07:18:19.587Z,100405.38
2022-12-08T07:21:34.594Z,100398.34
2022-12-08T07:24:36.610Z,100401.44
2022-12-08T07:27:52.605Z,100406.66
2022-12-08T07:30:54.669Z,100403.53
2022-12-08T07:34:12.760Z,100398.50
2022-12-08T07:37:14.626Z,100395.97
2022-12-08T07:40:29.751Z,100401.84
2022-12-08T07:43:38.843Z,100387.91
2022-12-08T07:46:56.195Z,100388.16
2022-12-08T07:50:04.856Z,100384.75
2022-12-08T07:53:20.553Z,100387.78
2022-12-08T07:56:31.354Z,100384.97
2022-12-08T07:59:41.776Z,100392.00
2022-12-08T08:03:03.613Z,100377.56
2022-12-08T08:06:18.591Z,100381.19
2022-12-08T08:09:28.365Z,100397.03
2022-12-08T08:12:50.659Z,100396.81
2022-12-08T08:19:32.958Z,100376.28
2022-12-08T08:22:58.907Z,100387.22
2022-12-08T08:26:15.851Z,100378.31
2022-12-08T08:29:46.757Z,100384.97
2022-12-08T08:33:00.236Z,100377.38
2022-12-08T08:36:10.659Z,100380.75
2022-12-08T08:39:29.583Z,100377.03
2022-12-08T08:42:45.670Z,100385.87
2022-12-08T08:45:58.348Z,100389.47
2022-12-08T08:49:14.595Z,100383.75
2022-12-08T08:52:16.714Z,100383.16
2022-12-08T08:55:31.694Z,100371.44
2022-12-08T08:58:40.604Z,100373.84
2022-12-08T09:01:49.436Z,100383.41
2022-12-08T09:05:12.605Z,100375.28
2022-12-08T09:08:21.689Z,100353.91
2022-12-08T09:11:31.615Z,100354.47
2022-12-08T09:14:40.598Z,100360.66
2022-12-08T09:17:55.706Z,100377.91
2022-12-08T09:21:14.726Z,100370.00
2022-12-08T09:24:23.706Z,100359.25
2022-12-08T09:27:32.434Z,100342.56
2022-12-08T09:30:43.644Z,100354.34
2022-12-08T09:33:52.365Z,100360.03
2022-12-08T09:37:08.674Z,100362.91
2022-12-08T09:40:21.256Z,100358.03
2022-12-08T09:44:05.604Z,100357.56
2022-12-08T09:47:35.876Z,100341.91
2022-12-08T09:50:53.356Z,100327.91
2022-12-08T09:54:07.729Z,100312.53
2022-12-08T09:57:20.952Z,100318.78
2022-12-08T10:00:29.725Z,100316.62
2022-12-08T10:03:45.526Z,100310.22
2022-12-08T10:07:11.646Z,100316.25
2022-12-08T10:10:46.843Z,100315.69
2022-12-08T10:14:15.454Z,100311.37
2022-12-08T10:17:35.678Z,100319.03
2022-12-08T10:20:44.375Z,100322.75
2022-12-08T10:24:08.732Z,100318.34
2022-12-08T10:27:17.365Z,100313.50
2022-12-08T10:30:31.886Z,100314.22
2022-12-08T10:33:40.250Z,100310.59
2022-12-08T10:40:36.869Z,100291.91
2022-12-08T10:43:59.813Z,100289.34
2022-12-08T10:47:17.081Z,100272.22
2022-12-08T10:50:38.682Z,100269.16
2022-12-08T10:53:47.747Z,100268.84
2022-12-08T10:57:04.698Z,100252.81
2022-12-08T11:00:18.073Z,100250.09
2022-12-08T11:03:39.653Z,100249.56
2022-12-08T11:06:56.673Z,100243.63
2022-12-08T11:10:06.564Z,100242.84
2022-12-08T11:13:26.708Z,100235.47
2022-12-08T11:16:36.192Z,100219.38
2022-12-08T11:20:00.758Z,100226.84
2022-12-08T11:23:28.719Z,100221.75
2022-12-08T11:26:35.331Z,100213.97
2022-12-08T11:29:49.874Z,100211.34
2022-12-08T11:33:06.700Z,100204.78
2022-12-08T11:36:22.682Z,100194.88
2022-12-08T11:39:34.588Z,100183.13
2022-12-08T11:43:07.956Z,100168.47
2022-12-08T11:46:26.816Z,100154.72
2022-12-08T11:49:39.872Z,100151.12
2022-12-08T11:52:58.930Z,100149.59
2022-12-08T11:56:26.747Z,100158.00
2022-12-08T11:59:41.919Z,100155.50
2022-12-08T12:03:14.789Z,100148.91
2022-12-08T12:06:55.606Z,100162.87
2022-12-08T12:10:36.030Z,100147.47
2022-12-08T12:14:14.998Z,100154.81
2022-12-08T12:17:51.739Z,100155.34
2022-12-08T12:21:18.769Z,100150.00
2022-12-08T12:24:36.267Z,100149.69
2022-12-08T12:27:47.710Z,100152.13
2022-12-08T12:31:06.931Z,100147.91
2022-12-08T12:34:23.766Z,100158.25
2022-12-08T12:37:46.815Z,100156.81
2022-12-08T12:40:50.202Z,100156.44
2022-12-08T12:44:31.088Z,100162.94
2022-12-08T12:47:57.815Z,100156.09
2022-12-08T12:51:00.082Z,100153.00
2022-12-08T12:54:28.830Z,100146.56
2022-12-08T12:57:49.638Z,100150.66
2022-12-08T13:01:34.876Z,100129.88
2022-12-08T13:05:11.807Z,100119.84
2022-12-08T13:08:23.178Z,100125.16
2022-12-08T13:11:53.718Z,100129.94
2022-12-08T13:15:08.727Z,100124.25
2022-12-08T13:18:38.831Z,100129.00
2022-12-08T13:21:41.062Z,100102.66
2022-12-08T13:24:55.858Z,100112.00
2022-12-08T13:28:24.721Z,100111.41
2022-12-08T13:31:38.437Z,100114.34
2022-12-08T13:35:01.834Z,100116.94
2022-12-08T13:38:04.620Z,100109.06
2022-12-08T13:41:28.819Z,100113.25
2022-12-08T13:50:42.721Z,100126.75
2022-12-08T13:59:35.890Z,100117.31
2022-12-08T14:02:48.969Z,100111.69
2022-12-08T14:06:12.620Z,100094.06
2022-12-08T14:09:22.307Z,100086.47
2022-12-08T14:12:37.819Z,100086.94
2022-12-08T14:15:52.894Z,100107.88
2022-12-08T14:19:19.986Z,100110.50
2022-12-08T14:22:49.259Z,100112.66
2022-12-08T14:25:51.631Z,100108.41
2022-12-08T14:29:08.163Z,100117.72
2022-12-08T14:32:39.308Z,100125.00
2022-12-08T14:35:59.786Z,100119.75
2022-12-08T14:39:15.854Z,100108.88
2022-12-08T14:42:24.200Z,100120.78
2022-12-08T14:45:40.402Z,100121.66
2022-12-08T14:48:42.546Z,100117.28
2022-12-08T14:51:57.838Z,100119.28
2022-12-08T14:55:07.668Z,100126.56
2022-12-08T14:58:26.762Z,100118.78
2022-12-08T15:01:36.321Z,100117.09
2022-12-08T15:04:49.677Z,100119.56
2022-12-08T15:08:22.921Z,100114.16
2022-12-08T15:11:36.593Z,100109.28
2022-12-08T15:15:23.546Z,100102.72
2022-12-08T15:18:42.875Z,100102.06
2022-12-08T15:21:59.277Z,100097.81
2022-12-08T15:25:12.530Z,100104.47
2022-12-08T15:28:31.258Z,100106.69
2022-12-08T15:31:36.639Z,100106.13
2022-12-08T15:34:53.116Z,100107.59
2022-12-08T15:38:08.902Z,100111.94
2022-12-08T15:41:15.203Z,100090.03
2022-12-08T15:44:29.793Z,100094.19
2022-12-08T15:47:33.590Z,100084.75
2022-12-08T15:50:49.860Z,100086.66
2022-12-08T15:53:59.902Z,100088.91
2022-12-08T16:01:08.233Z,100078.72
2022-12-08T16:05:06.412Z,100075.28
2022-12-08T16:08:17.082Z,100087.44
2022-12-08T16:11:56.597Z,100096.22
2022-12-08T16:15:48.424Z,100098.88
2022-12-08T16:25:17.813Z,100089.50
2022-12-08T16:31:56.114Z,100080.94
2022-12-08T16:35:08.079Z,100065.19
2022-12-08T16:38:23.871Z,100062.62
2022-12-08T16:41:32.848Z,100061.34
2022-12-08T16:44:42.221Z,100070.50
2022-12-08T16:48:00.864Z,100071.03
2022-12-08T16:51:15.821Z,100071.50
2022-12-08T16:54:30.863Z,100067.59
2022-12-08T16:57:46.870Z,100080.72
2022-12-08T17:00:48.857Z,100074.50
2022-12-08T17:07:32.427Z,100078.75
2022-12-08T17:10:47.858Z,100076.00
2022-12-08T17:13:49.710Z,100074.50
2022-12-08T17:17:04.939Z,100076.78
2022-12-08T17:20:17.858Z,100086.41
2022-12-08T17:23:26.450Z,100082.38
2022-12-08T17:26:40.895Z,100081.63
2022-12-08T17:29:49.919Z,100095.66
2022-12-08T17:33:04.839Z,100093.09
2022-12-08T17:36:11.481Z,100110.59
2022-12-08T17:39:25.951Z,100103.31
2022-12-08T17:42:34.406Z,100073.41
2022-12-08T17:45:48.982Z,100061.06
2022-12-08T17:49:03.974Z,100054.34
2022-12-08T17:52:12.918Z,100058.19
2022-12-08T17:55:27.834Z,100066.06
2022-12-08T17:58:29.790Z,100064.22
2022-12-08T18:01:45.906Z,100064.22
2022-12-08T18:05:07.837Z,100064.94
2022-12-08T18:08:17.126Z,100075.34
2022-12-08T18:11:34.007Z,100075.03
2022-12-08T18:14:35.844Z,100059.47
2022-12-08T18:17:50.903Z,100057.53
2022-12-08T18:21:05.922Z,100060.31
2022-12-08T18:24:15.859Z,100060.63
2022-12-08T18:27:30.905Z,100065.41
2022-12-08T18:30:33.129Z,100063.16
2022-12-08T18:33:49.946Z,100064.16
2022-12-08T18:36:58.450Z,100064.28
2022-12-08T18:40:07.203Z,100059.53
2022-12-08T18:43:15.657Z,100063.72
2022-12-08T18:46:23.987Z,100069.62
2022-12-08T18:49:32.566Z,100069.28
2022-12-08T18:52:46.917Z,100067.47
2022-12-08T18:56:01.862Z,100071.53
2022-12-08T18:59:13.891Z,100068.59
2022-12-08T19:02:30.045Z,100058.75
2022-12-08T19:05:31.951Z,100053.22
2022-12-08T19:08:49.438Z,100061.50
2022-12-08T19:11:58.052Z,100062.22
2022-12-08T19:15:13.888Z,100063.59
2022-12-08T19:18:16.071Z,100067.41
2022-12-08T19:21:31.874Z,100065.47
2022-12-08T19:24:40.755Z,100069.22
2022-12-08T19:27:48.909Z,100072.09
2022-12-08T19:31:03.996Z,100069.00
2022-12-08T19:34:06.100Z,100077.75
2022-12-08T19:37:20.914Z,100073.28
2022-12-08T19:40:28.940Z,100076.25
2022-12-08T19:43:37.580Z,100066.69
2022-12-08T19:46:45.994Z,100077.94
2022-12-08T19:49:55.224Z,100066.56
2022-12-08T19:53:12.937Z,100062.06
2022-12-08T19:56:27.893Z,100072.72
2022-12-08T19:59:37.035Z,100068.44
2022-12-08T20:02:52.981Z,100051.88
2022-12-08T20:06:00.987Z,100055.97
2022-12-08T20:09:16.970Z,100054.66
2022-12-08T20:12:25.703Z,100053.56
2022-12-08T20:15:34.011Z,100049.09
2022-12-08T20:18:43.689Z,100056.69
2022-12-08T20:21:59.078Z,100040.63
2022-12-08T20:25:12.803Z,100045.88
2022-12-08T20:28:21.954Z,100034.91
2022-12-08T20:31:38.993Z,100037.34
2022-12-08T20:34:41.078Z,100035.41
2022-12-08T20:37:55.963Z,100027.53
2022-12-08T20:40:59.285Z,100027.53
2022-12-08T20:44:14.953Z,100046.12
2022-12-08T20:47:23.912Z,100043.72
2022-12-08T20:50:32.192Z,100041.38
2022-12-08T20:53:40.761Z,100050.47
2022-12-08T20:56:49.097Z,100058.69
2022-12-08T20:59:57.876Z,100052.88
2022-12-08T21:03:13.129Z,100067.56
2022-12-08T21:06:28.200Z,100069.84
2022-12-08T21:09:37.288Z,100062.94
2022-12-08T21:12:45.758Z,100060.63
2022-12-08T21:15:54.119Z,100063.16
2022-12-08T21:19:09.322Z,100059.19
2022-12-08T21:22:11.401Z,100064.78
2022-12-08T21:25:26.078Z,100070.22
2022-12-08T21:28:35.013Z,100062.25
2022-12-08T21:31:50.154Z,100057.19
2022-12-08T21:34:59.038Z,100059.84
2022-12-08T21:38:14.082Z,100052.94
2022-12-08T21:41:19.805Z,100035.53
2022-12-08T21:44:35.262Z,100009.31
2022-12-08T21:47:37.184Z,100031.88
2022-12-08T21:50:52.065Z,100031.25
2022-12-08T21:53:54.735Z,100026.44
2022-12-08T21:57:10.290Z,100027.16
2022-12-08T22:00:22.296Z,100034.16
2022-12-08T22:03:37.199Z,100039.97
2022-12-08T22:06:45.321Z,100043.00
2022-12-08T22:10:00.304Z,100041.91
2022-12-08T22:13:08.690Z,100046.41
2022-12-08T22:16:19.277Z,100039.63
2022-12-08T22:19:27.527Z,100033.44
2022-12-08T22:22:36.166Z,100002.53
2022-12-08T22:25:47.059Z,100034.06
2022-12-08T22:29:03.010Z,100025.66
2022-12-08T22:32:12.029Z,100035.56
2022-12-08T22:35:20.687Z,100060.69
2022-12-08T22:38:29.160Z,100056.56
2022-12-08T22:41:37.768Z,100050.97
2022-12-08T22:44:53.052Z,100045.66
2022-12-08T22:47:55.088Z,100042.66
2022-12-08T22:51:10.139Z,100049.56
2022-12-08T22:54:19.058Z,100045.34
2022-12-08T22:57:35.130Z,100051.63
2022-12-08T23:00:37.969Z,100038.72
2022-12-08T23:03:53.376Z,100037.75
2022-12-08T23:07:03.022Z,100046.19
2022-12-08T23:10:19.234Z,100043.50
2022-12-08T23:13:21.934Z,100043.16
2022-12-08T23:16:37.053Z,100031.03
2022-12-08T23:19:39.823Z,100046.87
2022-12-08T23:22:55.233Z,100040.00
2022-12-08T23:25:57.393Z,100046.25
2022-12-08T23:29:12.122Z,100036.41
2022-12-08T23:32:21.104Z,100028.75
2022-12-08T23:35:29.618Z,100028.56
2022-12-08T23:38:38.040Z,100035.94
2022-12-08T23:41:52.986Z,100035.56
2022-12-08T23:44:54.825Z,100015.31
2022-12-08T23:48:11.214Z,100040.41
2022-12-08T23:51:14.009Z,100027.72
2022-12-08T23:54:29.067Z,100022.88
2022-12-08T23:57:37.108Z,100026.00
